createdAt,value
2023-03-02T00:01:25.408Z,3.90
2023-03-02T00:03:53.775Z,3.90
2023-03-02T00:06:21.990Z,3.90
2023-03-02T00:08:49.994Z,3.90
2023-03-02T00:11:18.095Z,3.90
2023-03-02T00:13:47.481Z,3.80
2023-03-02T00:16:15.530Z,3.80
2023-03-02T00:18:43.508Z,3.80
2023-03-02T00:21:11.649Z,3.80
2023-03-02T00:23:39.744Z,3.80
2023-03-02T00:26:08.056Z,3.80
2023-03-02T00:28:36.184Z,3.80
2023-03-02T00:31:07.012Z,3.70
2023-03-02T00:33:35.451Z,3.70
2023-03-02T00:36:04.168Z,3.70
2023-03-02T00:38:32.182Z,3.70
2023-03-02T00:41:01.233Z,3.70
2023-03-02T00:43:29.883Z,3.70
2023-03-02T00:45:58.974Z,3.60
2023-03-02T00:48:28.284Z,3.60
2023-03-02T00:50:56.242Z,3.60
2023-03-02T00:53:24.252Z,3.60
2023-03-02T00:55:55.882Z,3.60
2023-03-02T00:58:25.105Z,3.60
2023-03-02T01:00:53.333Z,3.60
2023-03-02T01:03:22.323Z,3.50
2023-03-02T01:05:56.296Z,3.50
2023-03-02T01:08:25.101Z,3.40
2023-03-02T01:10:54.427Z,3.50
2023-03-02T01:13:22.551Z,3.50
2023-03-02T01:15:50.668Z,3.50
2023-03-02T01:18:18.748Z,3.50
2023-03-02T01:20:46.706Z,3.50
2023-03-02T01:23:16.053Z,3.50
2023-03-02T01:25:44.035Z,3.50
2023-03-02T01:28:12.035Z,3.40
2023-03-02T01:30:40.030Z,3.30
2023-03-02T01:33:07.995Z,3.30
2023-03-02T01:35:36.024Z,3.30
2023-03-02T01:38:04.307Z,3.20
2023-03-02T01:40:33.874Z,3.10
2023-03-02T01:43:04.688Z,3.10
2023-03-02T01:45:54.430Z,3.10
2023-03-02T01:48:36.057Z,3.10
2023-03-02T01:51:05.420Z,3.10
2023-03-02T01:53:35.507Z,3.00
2023-03-02T01:56:06.526Z,2.90
2023-03-02T01:58:37.468Z,2.80
2023-03-02T02:01:15.527Z,2.70
2023-03-02T02:03:45.354Z,2.70
2023-03-02T02:06:19.453Z,2.70
2023-03-02T02:08:48.340Z,2.70
2023-03-02T02:11:18.984Z,2.70
2023-03-02T02:13:51.440Z,2.70
2023-03-02T02:16:19.776Z,2.70
2023-03-02T02:18:47.933Z,2.70
2023-03-02T02:21:16.590Z,2.60
2023-03-02T02:23:51.747Z,2.50
2023-03-02T02:26:27.182Z,2.60
2023-03-02T02:29:00.424Z,2.60
2023-03-02T02:31:36.351Z,2.70
2023-03-02T02:34:10.749Z,2.70
2023-03-02T02:36:42.799Z,2.60
2023-03-02T02:39:20.242Z,2.60
2023-03-02T02:41:56.385Z,2.70
2023-03-02T02:44:25.048Z,2.60
2023-03-02T02:46:53.213Z,2.60
2023-03-02T02:49:31.234Z,2.80
2023-03-02T02:52:00.527Z,2.80
2023-03-02T02:54:30.113Z,2.70
2023-03-02T02:57:01.611Z,2.70
2023-03-02T02:59:33.634Z,2.50
2023-03-02T03:02:02.391Z,2.50
2023-03-02T03:04:33.251Z,2.50
2023-03-02T03:07:03.550Z,2.50
2023-03-02T03:09:32.737Z,2.60
2023-03-02T03:12:09.104Z,2.60
2023-03-02T03:14:40.172Z,2.60
2023-03-02T03:17:12.511Z,2.60
2023-03-02T03:19:47.778Z,2.70
2023-03-02T03:22:17.755Z,2.50
2023-03-02T03:24:48.453Z,2.50
2023-03-02T03:27:19.228Z,2.50
2023-03-02T03:29:48.809Z,2.40
2023-03-02T03:32:19.974Z,2.30
2023-03-02T03:34:49.987Z,2.40
2023-03-02T03:37:31.055Z,2.40
2023-03-02T03:39:59.107Z,2.40
2023-03-02T03:42:28.916Z,2.40
2023-03-02T03:44:58.898Z,2.30
2023-03-02T03:47:26.919Z,2.20
2023-03-02T03:49:55.463Z,2.10
2023-03-02T03:52:30.571Z,2.10
2023-03-02T03:55:06.867Z,2.10
2023-03-02T03:57:36.980Z,2.00
2023-03-02T04:00:08.800Z,2.10
2023-03-02T04:02:42.499Z,2.10
2023-03-02T04:05:13.787Z,2.20
2023-03-02T04:07:42.117Z,2.20
2023-03-02T04:10:12.321Z,2.20
2023-03-02T04:12:43.655Z,2.20
2023-03-02T04:15:15.777Z,2.10
2023-03-02T04:17:45.933Z,2.10
2023-03-02T04:20:17.702Z,2.10
2023-03-02T04:22:51.392Z,2.20
2023-03-02T04:25:23.785Z,2.20
2023-03-02T04:27:56.773Z,2.20
2023-03-02T04:30:29.963Z,2.20
2023-03-02T04:32:58.449Z,2.20
2023-03-02T04:35:29.476Z,2.20
2023-03-02T04:37:57.744Z,2.20
2023-03-02T04:40:26.069Z,2.30
2023-03-02T04:42:54.080Z,2.20
2023-03-02T04:45:23.543Z,2.20
2023-03-02T04:47:51.542Z,2.10
2023-03-02T04:50:19.667Z,2.10
2023-03-02T04:52:47.980Z,2.00
2023-03-02T04:55:21.635Z,2.00
2023-03-02T04:57:50.097Z,2.10
2023-03-02T05:00:20.876Z,2.10
2023-03-02T05:02:50.815Z,2.00
2023-03-02T05:05:21.797Z,2.10
2023-03-02T05:07:50.142Z,2.20
2023-03-02T05:10:18.792Z,2.20
2023-03-02T05:12:58.097Z,2.20
2023-03-02T05:15:29.050Z,2.20
2023-03-02T05:17:58.725Z,2.30
2023-03-02T05:20:30.193Z,2.30
2023-03-02T05:23:00.466Z,2.20
2023-03-02T05:25:30.659Z,2.30
2023-03-02T05:27:58.709Z,2.30
2023-03-02T05:30:26.824Z,2.20
2023-03-02T05:32:55.839Z,2.20
2023-03-02T05:35:25.937Z,2.10
2023-03-02T05:37:53.931Z,2.10
2023-03-02T05:40:22.628Z,2.20
2023-03-02T05:42:50.715Z,2.20
2023-03-02T05:45:21.605Z,2.30
2023-03-02T05:47:49.708Z,2.30
2023-03-02T05:50:18.233Z,2.20
2023-03-02T05:52:47.948Z,2.20
2023-03-02T05:55:17.916Z,2.20
2023-03-02T05:57:46.762Z,2.30
2023-03-02T06:00:15.932Z,2.30
2023-03-02T06:02:44.229Z,2.30
2023-03-02T06:05:14.127Z,2.30
2023-03-02T06:07:42.291Z,2.30
2023-03-02T06:10:14.020Z,2.30
2023-03-02T06:12:42.243Z,2.30
2023-03-02T06:15:11.290Z,2.30
2023-03-02T06:17:39.742Z,2.40
2023-03-02T06:20:10.827Z,2.30
2023-03-02T06:22:41.160Z,2.40
2023-03-02T06:25:12.712Z,2.40
2023-03-02T06:27:41.643Z,2.40
2023-03-02T06:30:12.329Z,2.30
2023-03-02T06:32:40.548Z,2.30
2023-03-02T06:35:45.878Z,2.30
2023-03-02T06:38:14.057Z,2.40
2023-03-02T06:40:43.383Z,2.50
2023-03-02T06:43:11.466Z,2.50
2023-03-02T06:45:39.737Z,2.50
2023-03-02T06:48:09.008Z,2.50
2023-03-02T06:50:37.150Z,2.50
2023-03-02T06:53:05.109Z,2.60
2023-03-02T06:55:36.470Z,2.60
2023-03-02T06:58:05.904Z,2.70
2023-03-02T07:00:33.893Z,2.70
2023-03-02T07:03:01.950Z,2.70
2023-03-02T07:05:32.187Z,2.80
2023-03-02T07:08:00.267Z,2.80
2023-03-02T07:10:28.370Z,2.90
2023-03-02T07:12:56.511Z,2.90
2023-03-02T07:15:26.393Z,2.90
2023-03-02T07:17:54.695Z,3.00
2023-03-02T07:20:22.937Z,3.10
2023-03-02T07:22:51.149Z,3.10
2023-03-02T07:25:19.647Z,3.20
2023-03-02T07:27:47.860Z,3.20
2023-03-02T07:30:18.908Z,3.30
2023-03-02T07:32:48.301Z,3.30
2023-03-02T07:35:17.046Z,3.30
2023-03-02T07:37:45.520Z,3.40
2023-03-02T07:40:14.665Z,3.60
2023-03-02T07:42:42.739Z,3.70
2023-03-02T07:45:12.580Z,3.80
2023-03-02T07:47:40.610Z,3.90
2023-03-02T07:50:11.607Z,4.00
2023-03-02T07:52:39.654Z,4.10
2023-03-02T07:55:08.208Z,4.10
2023-03-02T07:57:36.470Z,4.20
2023-03-02T08:00:05.690Z,4.20
2023-03-02T08:02:40.724Z,4.20
2023-03-02T08:05:11.159Z,4.10
2023-03-02T08:07:40.522Z,4.10
2023-03-02T08:10:09.513Z,4.10
2023-03-02T08:12:37.565Z,4.10
2023-03-02T08:15:06.707Z,4.10
2023-03-02T08:17:34.724Z,4.10
2023-03-02T08:20:03.834Z,4.10
2023-03-02T08:22:33.268Z,4.20
2023-03-02T08:25:01.317Z,4.30
2023-03-02T08:27:29.422Z,4.30
2023-03-02T08:29:58.019Z,4.30
2023-03-02T08:32:26.148Z,4.40
2023-03-02T08:34:54.551Z,4.30
2023-03-02T08:37:22.616Z,4.40
2023-03-02T08:39:52.042Z,4.50
2023-03-02T08:42:20.217Z,4.60
2023-03-02T08:44:48.192Z,4.50
2023-03-02T08:47:16.249Z,4.60
2023-03-02T08:49:45.147Z,4.70
2023-03-02T08:52:15.193Z,4.70
2023-03-02T08:54:43.341Z,4.80
2023-03-02T08:57:13.981Z,4.90
2023-03-02T08:59:42.207Z,4.90
2023-03-02T09:02:12.502Z,4.90
2023-03-02T09:04:40.800Z,4.90
2023-03-02T09:07:08.759Z,5.00
2023-03-02T09:09:37.100Z,5.10
2023-03-02T09:12:05.425Z,5.10
2023-03-02T09:14:34.873Z,5.20
2023-03-02T09:17:03.582Z,5.30
2023-03-02T09:19:31.540Z,5.40
2023-03-02T09:21:59.585Z,5.40
2023-03-02T09:24:27.600Z,5.50
2023-03-02T09:26:55.733Z,5.50
2023-03-02T09:29:23.743Z,5.60
2023-03-02T09:31:53.232Z,5.70
2023-03-02T09:34:21.418Z,5.70
2023-03-02T09:36:49.517Z,5.70
2023-03-02T09:39:19.524Z,5.70
2023-03-02T09:42:13.293Z,5.70
2023-03-02T09:45:00.295Z,5.90
2023-03-02T09:47:38.142Z,6.00
2023-03-02T09:50:18.125Z,6.20
2023-03-02T09:52:51.869Z,6.20
2023-03-02T09:55:24.682Z,6.20
2023-03-02T09:57:53.635Z,6.30
2023-03-02T10:00:28.332Z,6.30
2023-03-02T10:03:14.946Z,6.40
2023-03-02T10:05:47.868Z,6.40
2023-03-02T10:08:20.349Z,6.40
2023-03-02T10:10:55.511Z,6.40
2023-03-02T10:13:27.728Z,6.50
2023-03-02T10:16:09.203Z,6.50
2023-03-02T10:18:43.655Z,6.60
2023-03-02T10:21:21.433Z,6.70
2023-03-02T10:23:56.060Z,6.70
2023-03-02T10:26:37.094Z,6.80
2023-03-02T10:29:20.821Z,6.80
2023-03-02T10:31:52.819Z,6.80
2023-03-02T10:34:29.021Z,6.80
2023-03-02T10:36:57.029Z,6.90
2023-03-02T10:39:25.129Z,6.90
2023-03-02T10:41:58.260Z,7.00
2023-03-02T10:44:30.564Z,7.00
2023-03-02T10:46:59.217Z,7.10
2023-03-02T10:49:31.123Z,7.20
2023-03-02T10:52:01.554Z,7.20
2023-03-02T10:54:31.122Z,7.30
2023-03-02T10:57:01.237Z,7.30
2023-03-02T10:59:44.669Z,7.40
2023-03-02T11:02:17.275Z,7.40
2023-03-02T11:04:47.046Z,7.50
2023-03-02T11:07:18.537Z,7.60
2023-03-02T11:10:02.616Z,7.60
2023-03-02T11:12:32.336Z,7.70
2023-03-02T11:15:17.329Z,7.90
2023-03-02T11:17:47.818Z,7.80
2023-03-02T11:20:23.145Z,7.90
2023-03-02T11:23:03.668Z,8.00
2023-03-02T11:25:36.615Z,8.10
2023-03-02T11:28:10.665Z,8.20
2023-03-02T11:30:46.392Z,8.20
2023-03-02T11:33:18.544Z,8.20
2023-03-02T11:35:53.048Z,8.30
2023-03-02T11:38:26.584Z,8.30
2023-03-02T11:40:58.419Z,8.30
2023-03-02T11:43:26.430Z,8.40
2023-03-02T11:45:59.719Z,8.40
2023-03-02T11:48:32.497Z,8.40
2023-03-02T11:51:04.284Z,8.40
2023-03-02T11:53:42.529Z,8.50
2023-03-02T11:56:11.023Z,8.60
2023-03-02T11:58:39.530Z,8.70
2023-03-02T12:01:13.274Z,8.80
2023-03-02T12:03:44.866Z,8.80
2023-03-02T12:06:35.589Z,8.90
2023-03-02T12:09:30.728Z,9.00
2023-03-02T12:12:02.141Z,9.00
2023-03-02T12:14:38.265Z,9.00
2023-03-02T12:17:22.195Z,9.10
2023-03-02T12:19:52.971Z,9.30
2023-03-02T12:22:30.919Z,9.40
2023-03-02T12:25:05.875Z,9.40
2023-03-02T12:27:38.731Z,9.40
2023-03-02T12:30:26.650Z,9.50
2023-03-02T12:33:17.517Z,9.60
2023-03-02T12:35:45.808Z,9.70
2023-03-02T12:38:30.799Z,9.80
2023-03-02T12:41:14.713Z,9.90
2023-03-02T12:43:48.505Z,10.00
2023-03-02T12:46:30.033Z,10.10
2023-03-02T12:49:17.869Z,10.20
2023-03-02T12:51:53.920Z,10.30
2023-03-02T12:54:25.263Z,10.40
2023-03-02T12:57:06.218Z,10.50
2023-03-02T12:59:34.307Z,10.60
2023-03-02T13:02:06.840Z,10.70
2023-03-02T13:04:34.862Z,10.80
2023-03-02T13:07:02.983Z,10.90
2023-03-02T13:09:32.566Z,11.00
2023-03-02T13:12:00.616Z,11.10
2023-03-02T13:14:30.542Z,11.20
2023-03-02T13:17:00.222Z,11.30
2023-03-02T13:19:30.521Z,11.30
2023-03-02T13:21:59.642Z,11.40
2023-03-02T13:24:37.659Z,11.50
2023-03-02T13:27:08.715Z,11.60
2023-03-02T13:29:36.857Z,11.70
2023-03-02T13:32:19.769Z,11.70
2023-03-02T13:34:50.174Z,11.70
2023-03-02T13:37:23.405Z,11.90
2023-03-02T13:40:00.836Z,12.00
2023-03-02T13:42:35.098Z,12.20
2023-03-02T13:45:22.962Z,12.30
2023-03-02T13:47:51.069Z,12.40
2023-03-02T13:50:20.953Z,12.50
2023-03-02T13:52:49.654Z,12.50
2023-03-02T13:55:20.686Z,12.50
2023-03-02T13:57:50.276Z,12.60
2023-03-02T14:00:21.351Z,12.90
2023-03-02T14:02:50.571Z,13.10
2023-03-02T14:05:20.624Z,13.50
2023-03-02T14:07:49.432Z,13.80
2023-03-02T14:10:20.230Z,13.90
2023-03-02T14:12:54.877Z,14.30
2023-03-02T14:15:22.931Z,14.60
2023-03-02T14:17:51.001Z,15.20
2023-03-02T14:20:21.074Z,15.80
2023-03-02T14:22:50.512Z,16.20
2023-03-02T14:25:20.489Z,16.30
2023-03-02T14:27:48.599Z,16.70
2023-03-02T14:30:19.462Z,17.30
2023-03-02T14:32:47.642Z,17.80
2023-03-02T14:35:16.892Z,18.30
2023-03-02T14:37:47.876Z,18.80
2023-03-02T14:40:22.487Z,19.10
2023-03-02T14:42:51.746Z,19.00
2023-03-02T14:45:21.812Z,19.30
2023-03-02T14:47:49.896Z,18.60
2023-03-02T14:50:18.068Z,18.10
2023-03-02T14:52:49.159Z,17.20
2023-03-02T14:55:25.711Z,16.00
2023-03-02T14:57:56.958Z,15.10
2023-03-02T15:00:25.733Z,14.30
2023-03-02T15:02:54.097Z,13.70
2023-03-02T15:05:22.692Z,13.20
2023-03-02T15:07:50.740Z,12.90
2023-03-02T15:10:20.811Z,12.70
2023-03-02T15:12:50.537Z,12.50
2023-03-02T15:15:18.763Z,12.40
2023-03-02T15:17:46.800Z,12.30
2023-03-02T15:20:16.978Z,12.30
2023-03-02T15:22:45.097Z,12.20
2023-03-02T15:25:13.045Z,12.20
2023-03-02T15:27:41.487Z,12.10
2023-03-02T15:30:12.816Z,12.00
2023-03-02T15:32:40.941Z,12.00
2023-03-02T15:35:09.908Z,11.90
2023-03-02T15:37:37.992Z,11.90
2023-03-02T15:40:07.880Z,11.90
2023-03-02T15:42:36.993Z,11.90
2023-03-02T15:45:05.678Z,12.00
2023-03-02T15:47:35.062Z,11.90
2023-03-02T15:50:03.092Z,11.90
2023-03-02T15:52:31.103Z,11.90
2023-03-02T15:54:59.105Z,11.90
2023-03-02T15:57:27.325Z,11.80
2023-03-02T15:59:55.292Z,11.70
2023-03-02T16:02:23.316Z,11.60
2023-03-02T16:04:52.683Z,11.60
2023-03-02T16:07:20.745Z,11.50
2023-03-02T16:09:49.036Z,11.40
2023-03-02T16:12:17.885Z,11.50
2023-03-02T16:14:46.041Z,11.50
2023-03-02T16:17:14.209Z,11.40
2023-03-02T16:19:42.453Z,11.30
2023-03-02T16:22:11.891Z,11.30
2023-03-02T16:24:41.831Z,11.30
2023-03-02T16:27:10.526Z,11.20
2023-03-02T16:29:38.712Z,11.10
2023-03-02T16:32:08.993Z,11.10
2023-03-02T16:34:37.249Z,11.00
2023-03-02T16:37:05.338Z,11.00
2023-03-02T16:39:34.898Z,10.90
2023-03-02T16:42:03.393Z,10.90
2023-03-02T16:44:32.765Z,10.80
2023-03-02T16:47:00.806Z,10.70
2023-03-02T16:49:29.166Z,10.80
2023-03-02T16:51:59.207Z,10.70
2023-03-02T16:54:27.368Z,10.60
2023-03-02T16:56:56.890Z,10.60
2023-03-02T16:59:25.166Z,10.50
2023-03-02T17:01:54.008Z,10.50
2023-03-02T17:04:22.195Z,10.40
2023-03-02T17:07:05.421Z,10.40
2023-03-02T17:09:37.054Z,10.30
2023-03-02T17:12:07.146Z,10.30
2023-03-02T17:14:35.203Z,10.20
2023-03-02T17:17:03.378Z,10.20
2023-03-02T17:19:31.492Z,10.10
2023-03-02T17:22:00.411Z,10.10
2023-03-02T17:24:29.315Z,10.00
2023-03-02T17:26:57.927Z,10.00
2023-03-02T17:29:27.434Z,10.00
2023-03-02T17:31:55.926Z,9.90
2023-03-02T17:34:24.016Z,9.90
2023-03-02T17:36:52.043Z,9.80
2023-03-02T17:39:20.073Z,9.80
2023-03-02T17:41:48.132Z,9.70
2023-03-02T17:44:16.180Z,9.70
2023-03-02T17:46:46.464Z,9.70
2023-03-02T17:49:15.017Z,9.60
2023-03-02T17:51:43.525Z,9.50
2023-03-02T17:54:18.193Z,9.50
2023-03-02T17:56:55.685Z,9.50
2023-03-02T17:59:27.423Z,9.50
2023-03-02T18:01:58.257Z,9.50
2023-03-02T18:04:27.054Z,9.40
2023-03-02T18:07:05.951Z,9.40
2023-03-02T18:09:34.826Z,9.40
2023-03-02T18:12:07.591Z,9.30
2023-03-02T18:14:37.939Z,9.20
2023-03-02T18:17:12.930Z,9.20
2023-03-02T18:19:41.763Z,9.20
2023-03-02T18:22:11.700Z,9.10
2023-03-02T18:24:40.097Z,9.10
2023-03-02T18:27:11.328Z,9.00
2023-03-02T18:29:40.389Z,9.00
2023-03-02T18:32:10.817Z,8.90
2023-03-02T18:34:39.212Z,8.90
2023-03-02T18:37:07.548Z,8.90
2023-03-02T18:39:37.649Z,8.80
2023-03-02T18:42:06.522Z,8.80
2023-03-02T18:44:35.019Z,8.80
2023-03-02T18:47:03.419Z,8.80
2023-03-02T18:49:32.845Z,8.70
2023-03-02T18:52:05.689Z,8.70
2023-03-02T18:54:34.196Z,8.70
2023-03-02T18:57:03.576Z,8.60
2023-03-02T18:59:31.982Z,8.60
2023-03-02T19:02:05.781Z,8.60
2023-03-02T19:04:35.592Z,8.60
2023-03-02T19:07:06.916Z,8.60
2023-03-02T19:09:35.758Z,8.60
2023-03-02T19:12:04.774Z,8.50
2023-03-02T19:14:33.482Z,8.50
2023-03-02T19:17:02.048Z,8.40
2023-03-02T19:19:30.524Z,8.40
2023-03-02T19:22:01.028Z,8.40
2023-03-02T19:24:29.519Z,8.40
2023-03-02T19:26:57.798Z,8.40
2023-03-02T19:29:25.949Z,8.30
2023-03-02T19:31:55.594Z,8.30
2023-03-02T19:34:24.159Z,8.20
2023-03-02T19:36:52.624Z,8.20
2023-03-02T19:39:22.089Z,8.20
2023-03-02T19:41:50.568Z,8.10
2023-03-02T19:44:18.796Z,8.10
2023-03-02T19:46:46.836Z,8.10
2023-03-02T19:49:15.685Z,8.10
2023-03-02T19:51:44.057Z,8.00
2023-03-02T19:54:12.177Z,8.00
2023-03-02T19:56:43.594Z,7.90
2023-03-02T19:59:12.444Z,7.90
2023-03-02T20:01:40.687Z,7.90
2023-03-02T20:04:08.833Z,7.80
2023-03-02T20:06:37.388Z,7.70
2023-03-02T20:09:08.555Z,7.70
2023-03-02T20:11:38.322Z,7.70
2023-03-02T20:14:07.889Z,7.70
2023-03-02T20:16:38.441Z,7.70
2023-03-02T20:19:06.984Z,7.60
2023-03-02T23:44:21.886Z,5.30
2023-03-02T23:46:51.907Z,5.30
2023-03-02T23:49:20.041Z,5.20
2023-03-02T23:51:48.560Z,5.20
2023-03-02T23:54:16.656Z,5.10
2023-03-02T23:56:46.322Z,5.10
2023-03-02T23:59:14.513Z,5.10
